Time;durP1;ratioP1;P1;durP2;ratioP2;P2;SDS_P1;SDS_P2;PMS_P1;PMS_P2;Temp;Humidity;BMP_temperature;BMP_pressure;BME280_temperature;BME280_humidity;BME280_pressure;Samples;Min_cycle;Max_cycle;Signal;HPM_P1;HPM_P2
2023/12/30 00:01:48;;;;;;;11.27;2.00;;;9.90;99.90;;;;;;5134144;28;20446;-67
2023/12/30 00:04:15;;;;;;;10.33;2.47;;;9.90;99.90;;;;;;5134276;28;20441;-68
2023/12/30 00:06:43;;;;;;;11.30;2.20;;;9.90;99.90;;;;;;5134251;28;20803;-67
2023/12/30 00:09:10;;;;;;;9.20;1.80;;;9.90;99.90;;;;;;5133769;28;20927;-67
2023/12/30 00:11:36;;;;;;;5.90;1.87;;;9.90;99.90;;;;;;5137325;27;20438;-67
2023/12/30 00:14:05;;;;;;;10.63;1.70;;;9.90;99.90;;;;;;5137954;27;20484;-67
2023/12/30 00:16:33;;;;;;;10.33;2.27;;;9.90;99.90;;;;;;5137584;27;20966;-67
2023/12/30 00:19:00;;;;;;;6.20;2.47;;;9.90;99.90;;;;;;5137848;27;20446;-68
2023/12/30 00:21:26;;;;;;;14.77;2.50;;;9.90;99.90;;;;;;5137660;27;20448;-67
2023/12/30 00:23:53;;;;;;;13.50;1.80;;;9.90;99.90;;;;;;5138195;27;20444;-67
2023/12/30 00:26:21;;;;;;;5.63;1.83;;;9.90;99.90;;;;;;5137666;27;20450;-67
2023/12/30 00:28:48;;;;;;;10.50;2.50;;;9.90;99.90;;;;;;5137674;27;20461;-68
2023/12/30 00:31:23;;;;;;;12.10;3.23;;;9.90;99.90;;;;;;5137425;27;20454;-67
2023/12/30 00:33:49;;;;;;;10.00;2.23;;;9.90;99.90;;;;;;5137479;27;20472;-67
2023/12/30 00:36:16;;;;;;;7.10;2.60;;;10.00;99.90;;;;;;5137841;27;20437;-66
2023/12/30 00:38:43;;;;;;;8.80;3.97;;;10.00;99.90;;;;;;5137344;27;20446;-66
2023/12/30 00:41:09;;;;;;;15.93;2.63;;;10.00;99.90;;;;;;5137029;27;20997;-66
2023/12/30 00:43:38;;;;;;;16.40;2.63;;;10.00;99.90;;;;;;5137476;27;20474;-66
2023/12/30 00:46:04;;;;;;;12.00;2.60;;;9.90;99.90;;;;;;5136977;27;20923;-66
2023/12/30 00:48:32;;;;;;;9.43;2.40;;;10.00;99.90;;;;;;5137203;27;20444;-66
2023/12/30 00:51:00;;;;;;;12.07;2.67;;;10.00;99.90;;;;;;5136598;27;20987;-66
2023/12/30 00:53:27;;;;;;;8.43;2.93;;;9.90;99.90;;;;;;5137103;27;20477;-67
2023/12/30 00:55:54;;;;;;;9.73;2.80;;;9.90;99.90;;;;;;5136976;27;20473;-67
2023/12/30 00:58:21;;;;;;;13.03;2.40;;;9.90;99.90;;;;;;5136358;27;20510;-67
2023/12/30 01:00:48;;;;;;;9.70;2.33;;;9.90;99.90;;;;;;5136257;27;20990;-67
2023/12/30 01:03:15;;;;;;;16.43;2.47;;;9.90;99.90;;;;;;5136572;27;20927;-67
2023/12/30 01:05:44;;;;;;;13.00;3.47;;;9.90;99.90;;;;;;5136813;27;20529;-67
2023/12/30 01:08:11;;;;;;;13.07;2.73;;;9.90;99.90;;;;;;5136988;27;20512;-67
2023/12/30 01:10:38;;;;;;;13.53;2.50;;;9.90;99.90;;;;;;5136565;27;20466;-67
2023/12/30 01:13:06;;;;;;;15.80;2.70;;;9.90;99.90;;;;;;5137497;27;20434;-67
2023/12/30 01:15:33;;;;;;;12.43;2.87;;;9.90;99.90;;;;;;5136503;27;20467;-67
2023/12/30 01:18:00;;;;;;;14.87;2.77;;;9.90;99.90;;;;;;5136455;27;20438;-67
2023/12/30 01:20:26;;;;;;;10.80;2.70;;;9.90;99.90;;;;;;5136312;27;20454;-67
2023/12/30 01:22:54;;;;;;;13.53;3.00;;;9.90;99.90;;;;;;5135685;27;20966;-67
2023/12/30 01:25:21;;;;;;;13.53;2.57;;;9.90;99.90;;;;;;5136275;27;20445;-67
2023/12/30 01:27:48;;;;;;;11.70;3.37;;;9.90;99.90;;;;;;5136357;27;20444;-67
2023/12/30 01:30:15;;;;;;;7.50;2.33;;;9.90;99.90;;;;;;5148301;27;20454;-67
2023/12/30 01:32:41;;;;;;;15.83;2.37;;;9.90;99.90;;;;;;5144536;27;20446;-67
2023/12/30 01:35:08;;;;;;;15.23;2.87;;;9.90;99.90;;;;;;5122148;27;20493;-67
2023/12/30 01:37:36;;;;;;;8.80;1.87;;;9.80;99.90;;;;;;5137877;27;20962;-67
2023/12/30 01:40:04;;;;;;;4.93;1.80;;;9.80;99.90;;;;;;5102822;27;20469;-68
2023/12/30 01:42:31;;;;;;;6.70;2.43;;;9.80;99.90;;;;;;5136838;27;20970;-67
2023/12/30 01:44:58;;;;;;;20.10;3.20;;;9.80;99.90;;;;;;5136538;27;20437;-67
2023/12/30 01:47:25;;;;;;;10.57;2.57;;;9.70;99.90;;;;;;5136131;27;20818;-67
2023/12/30 01:49:52;;;;;;;10.23;2.20;;;9.70;99.90;;;;;;5136297;27;20535;-67
2023/12/30 01:52:19;;;;;;;12.13;2.67;;;9.70;99.90;;;;;;5118127;27;20441;-67
2023/12/30 01:54:46;;;;;;;13.00;2.60;;;9.70;99.90;;;;;;5136016;27;20470;-68
2023/12/30 01:57:14;;;;;;;11.33;2.07;;;9.80;99.90;;;;;;5136624;27;20448;-67
2023/12/30 01:59:41;;;;;;;15.67;2.43;;;9.80;99.90;;;;;;5135931;27;20462;-67
2023/12/30 02:02:08;;;;;;;11.50;3.20;;;9.80;99.90;;;;;;5135842;27;20457;-67
2023/12/30 02:04:35;;;;;;;11.83;2.13;;;9.70;99.90;;;;;;5135805;27;20445;-68
2023/12/30 02:07:02;;;;;;;7.47;2.37;;;9.70;99.90;;;;;;5135554;27;20465;-67
2023/12/30 02:09:29;;;;;;;8.87;2.50;;;9.60;99.90;;;;;;5135463;27;20458;-67
2023/12/30 02:11:56;;;;;;;14.27;2.97;;;9.70;99.90;;;;;;5135558;27;20449;-67
2023/12/30 02:14:25;;;;;;;12.13;2.00;;;9.60;99.90;;;;;;5135066;27;20474;-67
2023/12/30 02:16:52;;;;;;;13.03;2.00;;;9.70;99.90;;;;;;5135592;27;20434;-68
2023/12/30 02:19:19;;;;;;;18.73;3.60;;;9.70;99.90;;;;;;5135266;27;20487;-67
2023/12/30 02:21:46;;;;;;;11.13;1.63;;;9.70;99.90;;;;;;5135475;27;20447;-67
2023/12/30 02:24:14;;;;;;;10.33;3.80;;;9.70;99.90;;;;;;5135405;27;20465;-67
2023/12/30 02:26:41;;;;;;;12.23;2.70;;;9.70;99.90;;;;;;5135707;27;20446;-67
2023/12/30 02:29:08;;;;;;;5.50;2.00;;;9.70;99.90;;;;;;5116868;27;20495;-68
2023/12/30 02:31:36;;;;;;;11.57;1.97;;;9.80;99.90;;;;;;5135284;27;20449;-67
2023/12/30 02:34:02;;;;;;;7.10;2.17;;;9.80;99.90;;;;;;5134201;27;20477;-67
2023/12/30 02:36:29;;;;;;;11.20;1.93;;;9.80;99.90;;;;;;5135203;27;20438;-67
2023/12/30 02:38:56;;;;;;;9.43;2.60;;;9.70;99.90;;;;;;5134931;27;20442;-68
2023/12/30 02:41:24;;;;;;;9.97;2.47;;;9.70;99.90;;;;;;5134985;27;20437;-67
2023/12/30 02:43:57;;;;;;;16.10;3.10;;;9.70;99.90;;;;;;5135058;27;20461;-67
2023/12/30 02:46:24;;;;;;;16.00;2.60;;;9.70;99.90;;;;;;5134862;27;20953;-67
2023/12/30 02:48:50;;;;;;;8.20;2.23;;;9.70;99.90;;;;;;5134647;27;20449;-67
2023/12/30 02:51:17;;;;;;;9.80;2.03;;;9.70;99.90;;;;;;5134802;27;20462;-67
2023/12/30 02:53:44;;;;;;;7.33;1.93;;;9.70;99.90;;;;;;5134383;27;20481;-67
2023/12/30 02:56:19;;;;;;;7.37;2.03;;;9.70;99.90;;;;;;5134748;27;20938;-67
2023/12/30 02:58:50;;;;;;;20.50;3.07;;;9.70;99.90;;;;;;5134425;27;20446;-67
2023/12/30 03:01:17;;;;;;;12.53;3.27;;;9.70;99.90;;;;;;5116189;27;20479;-67
2023/12/30 03:03:43;;;;;;;14.60;2.40;;;9.70;99.90;;;;;;5134428;27;20462;-67
2023/12/30 03:06:13;;;;;;;13.30;2.70;;;9.60;99.90;;;;;;5134273;27;20438;-67
2023/12/30 03:08:40;;;;;;;6.33;2.50;;;9.70;99.90;;;;;;5134598;27;20811;-67
2023/12/30 03:11:09;;;;;;;15.60;2.50;;;9.70;99.90;;;;;;5116433;27;20805;-67
2023/12/30 03:13:36;;;;;;;10.10;2.73;;;9.60;99.90;;;;;;5134359;27;20463;-68
2023/12/30 03:16:05;;;;;;;8.93;2.17;;;9.50;99.90;;;;;;5134161;28;20437;-67
2023/12/30 03:18:32;;;;;;;9.80;2.93;;;9.60;99.90;;;;;;5134554;28;20490;-67
2023/12/30 03:20:59;;;;;;;9.20;2.10;;;9.60;99.90;;;;;;5134120;28;20842;-67
2023/12/30 03:23:26;;;;;;;10.27;1.70;;;9.60;99.90;;;;;;5134619;28;20442;-67
2023/12/30 03:25:53;;;;;;;7.00;1.67;;;9.60;99.90;;;;;;5116294;28;20434;-67
2023/12/30 03:28:19;;;;;;;15.07;2.07;;;9.60;99.90;;;;;;5134465;28;20445;-68
2023/12/30 03:30:46;;;;;;;13.57;2.50;;;9.60;99.90;;;;;;5134249;28;20458;-67
2023/12/30 03:33:14;;;;;;;10.10;3.13;;;9.60;99.90;;;;;;5134327;28;20437;-67
2023/12/30 03:35:41;;;;;;;8.90;1.90;;;9.50;99.90;;;;;;5134139;28;20481;-67
2023/12/30 03:38:08;;;;;;;9.93;2.30;;;9.50;99.90;;;;;;5134460;28;20434;-67
2023/12/30 03:40:35;;;;;;;11.83;2.33;;;9.50;99.90;;;;;;5133783;28;21005;-67
2023/12/30 03:43:01;;;;;;;20.27;2.73;;;9.50;99.90;;;;;;5134707;28;20442;-67
2023/12/30 03:45:28;;;;;;;9.83;2.00;;;9.50;99.90;;;;;;5148616;27;20442;-66
2023/12/30 03:47:55;;;;;;;8.53;2.87;;;9.50;99.90;;;;;;5145152;27;21075;-67
2023/12/30 03:50:23;;;;;;;9.30;2.40;;;9.50;99.90;;;;;;5142260;27;20535;-67
2023/12/30 03:52:50;;;;;;;15.50;2.50;;;9.50;99.90;;;;;;5139921;27;20797;-67
2023/12/30 03:55:17;;;;;;;8.60;2.53;;;9.50;99.90;;;;;;5138938;27;20545;-67
2023/12/30 03:57:44;;;;;;;10.90;3.67;;;9.50;99.90;;;;;;5139045;27;20426;-67
2023/12/30 04:00:12;;;;;;;8.63;2.43;;;9.50;99.90;;;;;;5138381;27;20470;-67
2023/12/30 04:02:38;;;;;;;8.87;2.67;;;9.40;99.90;;;;;;5139034;27;20442;-67
2023/12/30 04:05:06;;;;;;;10.87;3.33;;;9.50;99.90;;;;;;5138615;27;20441;-67
2023/12/30 04:07:34;;;;;;;13.70;2.60;;;9.50;99.90;;;;;;5138267;27;20442;-67
2023/12/30 04:10:01;;;;;;;12.23;2.43;;;9.40;99.90;;;;;;5138127;27;20466;-67
2023/12/30 04:12:27;;;;;;;8.33;2.60;;;9.40;99.90;;;;;;5119415;27;20931;-67
2023/12/30 04:14:54;;;;;;;10.33;2.33;;;9.30;99.90;;;;;;5138441;27;20488;-67
2023/12/30 04:17:21;;;;;;;7.70;2.77;;;9.30;99.90;;;;;;5137548;27;20939;-67
2023/12/30 04:19:47;;;;;;;12.53;2.57;;;9.40;99.90;;;;;;5138027;27;20458;-67
2023/12/30 04:22:14;;;;;;;12.17;3.10;;;9.40;99.90;;;;;;5137841;27;20448;-67
2023/12/30 04:24:42;;;;;;;12.53;3.30;;;9.40;99.90;;;;;;5138042;27;20826;-67
2023/12/30 04:27:09;;;;;;;16.60;3.03;;;9.40;99.90;;;;;;5138003;27;20434;-67
2023/12/30 04:29:36;;;;;;;10.03;2.57;;;9.40;99.90;;;;;;5137438;27;20970;-67
2023/12/30 04:32:02;;;;;;;10.30;1.90;;;9.40;99.90;;;;;;5137477;27;20438;-67
2023/12/30 04:34:29;;;;;;;10.83;3.03;;;9.50;99.90;;;;;;5137123;27;20480;-67
2023/12/30 04:36:56;;;;;;;12.80;2.90;;;9.40;99.90;;;;;;5137474;27;20446;-67
2023/12/30 04:39:23;;;;;;;6.53;1.93;;;9.40;99.90;;;;;;5119124;27;20461;-67
2023/12/30 04:41:51;;;;;;;11.50;2.40;;;9.40;99.90;;;;;;5136980;27;20962;-65
2023/12/30 04:44:18;;;;;;;9.13;2.10;;;9.40;99.90;;;;;;5137400;27;20532;-66
2023/12/30 04:46:45;;;;;;;11.23;3.30;;;9.40;99.90;;;;;;5137328;27;20446;-66
2023/12/30 04:49:13;;;;;;;15.57;2.57;;;9.40;99.90;;;;;;5137195;27;20791;-67
2023/12/30 04:51:41;;;;;;;18.60;3.27;;;9.40;99.90;;;;;;5137059;27;20473;-66
2023/12/30 04:54:08;;;;;;;17.50;3.40;;;9.30;99.90;;;;;;5137214;27;20442;-66
2023/12/30 04:56:35;;;;;;;12.27;2.37;;;9.30;99.90;;;;;;5135849;27;20453;-67
2023/12/30 04:59:04;;;;;;;7.67;3.13;;;9.30;99.90;;;;;;5137014;27;20440;-66
2023/12/30 05:01:31;;;;;;;11.00;2.17;;;9.30;99.90;;;;;;5136848;27;20453;-65
2023/12/30 05:03:58;;;;;;;9.20;2.17;;;9.20;99.90;;;;;;5136944;27;20480;-66
2023/12/30 05:06:25;;;;;;;14.00;3.03;;;9.20;99.90;;;;;;5137064;27;20533;-66
2023/12/30 05:08:53;;;;;;;11.00;3.83;;;9.20;99.90;;;;;;5136951;27;20446;-66
2023/12/30 05:11:19;;;;;;;11.90;2.87;;;9.20;99.90;;;;;;5136790;27;20487;-66
2023/12/30 05:13:48;;;;;;;16.13;2.53;;;9.20;99.90;;;;;;5136615;27;20441;-66
2023/12/30 05:16:16;;;;;;;16.03;2.60;;;9.20;99.90;;;;;;5136679;27;20513;-66
2023/12/30 05:18:43;;;;;;;11.40;2.23;;;9.20;99.90;;;;;;5118254;27;20450;-66
2023/12/30 05:21:14;;;;;;;18.90;3.53;;;9.20;99.90;;;;;;5136266;27;20834;-66
2023/12/30 05:23:41;;;;;;;12.10;2.57;;;9.30;99.90;;;;;;5136792;27;20423;-65
2023/12/30 05:26:08;;;;;;;7.20;1.90;;;9.30;99.90;;;;;;5136533;27;20473;-66
2023/12/30 05:28:35;;;;;;;10.93;2.20;;;9.30;99.90;;;;;;5136482;27;20446;-66
2023/12/30 05:31:02;;;;;;;7.33;2.50;;;9.30;99.90;;;;;;5136062;27;20975;-66
2023/12/30 05:33:30;;;;;;;7.13;1.97;;;9.30;99.90;;;;;;5136771;27;20446;-67
2023/12/30 05:35:57;;;;;;;12.97;2.53;;;9.30;99.90;;;;;;5136588;27;20477;-66
2023/12/30 05:38:23;;;;;;;11.53;2.50;;;9.20;99.90;;;;;;5136076;27;20442;-66
2023/12/30 05:40:50;;;;;;;7.07;1.83;;;9.20;99.90;;;;;;5136733;27;20458;-67
2023/12/30 05:43:17;;;;;;;7.20;2.67;;;9.20;99.90;;;;;;5136235;27;20446;-67
2023/12/30 05:45:44;;;;;;;9.83;2.50;;;9.30;99.90;;;;;;5144539;27;20441;-66
2023/12/30 05:48:11;;;;;;;16.37;2.80;;;9.20;99.90;;;;;;5144247;27;20438;-67
2023/12/30 05:50:39;;;;;;;8.10;2.20;;;9.20;99.90;;;;;;5142640;27;20531;-66
2023/12/30 05:53:06;;;;;;;9.83;1.97;;;9.20;99.90;;;;;;5142568;27;20445;-67
2023/12/30 05:55:33;;;;;;;13.80;2.00;;;9.20;99.90;;;;;;5141430;27;20481;-67
2023/12/30 05:57:59;;;;;;;12.00;2.20;;;9.30;99.90;;;;;;5129875;27;20467;-66
2023/12/30 06:00:26;;;;;;;11.80;1.97;;;9.20;99.90;;;;;;5145714;27;20462;-66
2023/12/30 06:02:53;;;;;;;14.10;2.50;;;9.20;99.90;;;;;;5144030;27;20442;-66
2023/12/30 06:05:20;;;;;;;17.53;3.90;;;9.30;99.90;;;;;;5141529;27;20446;-66
2023/12/30 06:07:48;;;;;;;9.30;2.20;;;9.20;99.90;;;;;;5140832;27;20457;-66
2023/12/30 06:10:15;;;;;;;10.87;2.37;;;9.20;99.90;;;;;;5138385;27;20807;-66
2023/12/30 06:12:42;;;;;;;9.70;2.03;;;9.20;99.90;;;;;;5138500;27;20442;-66
2023/12/30 06:15:09;;;;;;;11.80;2.47;;;9.20;99.90;;;;;;5138799;27;20469;-66
2023/12/30 06:17:36;;;;;;;11.93;2.20;;;9.20;99.90;;;;;;5138176;27;20533;-66
2023/12/30 06:20:04;;;;;;;17.67;2.73;;;9.20;99.90;;;;;;5137080;27;20454;-66
2023/12/30 06:22:31;;;;;;;14.97;2.70;;;9.20;99.90;;;;;;5137246;27;20437;-66
2023/12/30 06:24:59;;;;;;;13.20;2.20;;;9.20;99.90;;;;;;5137204;27;20446;-66
2023/12/30 06:27:25;;;;;;;13.23;2.67;;;9.20;99.90;;;;;;5136778;27;20450;-66
2023/12/30 06:29:52;;;;;;;8.23;2.53;;;9.20;99.90;;;;;;5136615;27;20466;-66
2023/12/30 06:32:19;;;;;;;18.83;2.67;;;9.20;99.90;;;;;;5135655;27;20931;-66
2023/12/30 06:34:46;;;;;;;9.93;3.73;;;9.10;99.90;;;;;;5136042;27;20805;-66
2023/12/30 06:37:12;;;;;;;9.30;2.43;;;9.10;99.90;;;;;;5117603;27;20449;-66
2023/12/30 06:39:39;;;;;;;9.00;2.00;;;9.20;99.90;;;;;;5135434;27;20461;-66
2023/12/30 06:42:07;;;;;;;10.53;3.50;;;9.20;99.90;;;;;;5135683;27;20438;-66
2023/12/30 06:44:34;;;;;;;15.70;2.67;;;9.20;99.90;;;;;;5136002;27;20441;-66
2023/12/30 06:47:01;;;;;;;14.33;2.53;;;9.20;99.90;;;;;;5135623;27;20434;-66
2023/12/30 06:49:27;;;;;;;14.20;2.40;;;9.20;99.90;;;;;;5135613;27;20461;-66
2023/12/30 06:51:54;;;;;;;9.97;2.17;;;9.20;99.90;;;;;;5135382;27;20438;-66
2023/12/30 06:54:21;;;;;;;7.73;2.30;;;9.20;99.90;;;;;;5135618;27;20438;-66
2023/12/30 06:56:49;;;;;;;12.40;2.20;;;9.20;99.90;;;;;;5135022;27;20581;-66
2023/12/30 06:59:17;;;;;;;12.90;2.10;;;9.30;99.90;;;;;;5135059;27;20536;-66
2023/12/30 07:01:44;;;;;;;8.07;2.03;;;9.20;99.90;;;;;;5135052;27;20446;-66
2023/12/30 07:04:11;;;;;;;9.70;2.70;;;9.20;99.90;;;;;;5135492;27;20449;-66
2023/12/30 07:06:37;;;;;;;13.90;2.27;;;9.20;99.90;;;;;;5134716;27;20938;-67
2023/12/30 07:09:05;;;;;;;9.50;2.00;;;9.30;99.90;;;;;;5135044;27;20434;-67
2023/12/30 07:11:32;;;;;;;8.50;1.80;;;9.20;99.90;;;;;;5134677;27;20441;-67
2023/12/30 07:13:59;;;;;;;10.80;2.27;;;9.10;99.90;;;;;;5134676;27;20445;-66
2023/12/30 07:16:27;;;;;;;10.83;2.57;;;9.10;99.90;;;;;;5134755;27;20568;-67
2023/12/30 07:18:53;;;;;;;12.80;2.37;;;9.10;99.90;;;;;;5134785;28;20453;-68
2023/12/30 07:21:20;;;;;;;9.13;2.60;;;9.10;99.90;;;;;;5134313;27;20438;-66
2023/12/30 07:23:47;;;;;;;6.27;2.37;;;9.10;99.90;;;;;;5135098;28;20791;-67
2023/12/30 07:26:14;;;;;;;9.47;2.37;;;9.10;99.90;;;;;;5134564;28;20935;-67
2023/12/30 07:28:41;;;;;;;14.00;2.63;;;9.20;99.90;;;;;;5134680;28;20441;-66
2023/12/30 07:31:08;;;;;;;12.63;3.13;;;9.20;99.90;;;;;;5134501;28;20518;-67
2023/12/30 07:33:36;;;;;;;8.77;2.30;;;9.20;99.90;;;;;;5134546;28;20530;-66
2023/12/30 07:36:06;;;;;;;11.03;2.17;;;9.20;99.90;;;;;;5134659;28;20477;-66
2023/12/30 07:38:32;;;;;;;8.97;3.80;;;9.20;99.90;;;;;;5134762;28;20851;-67
2023/12/30 07:40:59;;;;;;;8.50;2.93;;;9.20;99.90;;;;;;5134576;28;20458;-66
2023/12/30 07:43:26;;;;;;;10.43;2.70;;;9.30;99.90;;;;;;5135148;28;20442;-66
2023/12/30 07:45:53;;;;;;;8.67;2.43;;;9.30;99.90;;;;;;5134783;28;20437;-67
2023/12/30 07:48:20;;;;;;;9.00;2.83;;;9.30;99.90;;;;;;5134465;28;20477;-66
2023/12/30 07:50:48;;;;;;;16.57;2.90;;;9.20;99.90;;;;;;5134365;28;20462;-67
2023/12/30 07:53:15;;;;;;;12.60;3.60;;;9.20;99.90;;;;;;5134325;28;20446;-67
2023/12/30 07:55:41;;;;;;;11.10;3.20;;;9.30;99.90;;;;;;5134101;28;20492;-67
2023/12/30 07:58:08;;;;;;;20.27;3.53;;;9.30;99.90;;;;;;5134145;28;20456;-66
2023/12/30 08:00:35;;;;;;;19.00;3.60;;;9.30;99.90;;;;;;5134103;28;20843;-67
2023/12/30 08:03:01;;;;;;;10.33;2.70;;;9.30;99.90;;;;;;5134528;28;20441;-67
2023/12/30 08:05:27;;;;;;;11.70;3.50;;;9.30;99.90;;;;;;5133994;28;20445;-66
2023/12/30 08:07:55;;;;;;;19.60;3.00;;;9.20;99.90;;;;;;5134526;28;20211;-67
2023/12/30 08:10:24;;;;;;;11.93;2.83;;;9.20;99.90;;;;;;5148393;28;20468;-66
2023/12/30 08:12:51;;;;;;;12.10;3.00;;;9.30;99.90;;;;;;5140289;28;20442;-67
2023/12/30 08:15:18;;;;;;;13.70;2.80;;;9.30;99.90;;;;;;5137188;28;20515;-67
2023/12/30 08:17:45;;;;;;;15.47;3.13;;;9.40;99.90;;;;;;5135210;28;20438;-67
2023/12/30 08:20:12;;;;;;;14.43;3.33;;;9.40;99.90;;;;;;5134346;28;20884;-67
2023/12/30 08:22:39;;;;;;;16.10;3.00;;;9.40;99.90;;;;;;5116429;28;20449;-67
2023/12/30 08:25:08;;;;;;;10.63;2.63;;;9.40;99.90;;;;;;5134903;28;20452;-66
2023/12/30 08:27:36;;;;;;;11.60;3.23;;;9.50;99.90;;;;;;5135218;28;20441;-67
2023/12/30 08:30:02;;;;;;;16.27;2.97;;;9.50;99.90;;;;;;5133928;28;20970;-67
2023/12/30 08:32:28;;;;;;;14.10;3.10;;;9.60;99.90;;;;;;5134897;27;20456;-67
2023/12/30 08:34:56;;;;;;;10.70;3.07;;;9.60;99.90;;;;;;5137783;27;20441;-67
2023/12/30 08:37:23;;;;;;;11.07;2.93;;;9.60;99.90;;;;;;5137625;27;20850;-67
2023/12/30 08:39:50;;;;;;;8.27;2.60;;;9.70;99.90;;;;;;5137948;27;20564;-67
2023/12/30 08:42:18;;;;;;;11.80;3.63;;;9.70;99.90;;;;;;5119461;27;20453;-67
2023/12/30 08:44:45;;;;;;;12.80;3.47;;;9.70;99.90;;;;;;5137925;27;20815;-67
2023/12/30 08:47:12;;;;;;;12.20;4.20;;;9.70;99.90;;;;;;5138359;27;20441;-67
2023/12/30 08:49:39;;;;;;;15.73;3.50;;;9.70;99.90;;;;;;5138368;27;20841;-67
2023/12/30 08:52:06;;;;;;;14.07;3.20;;;9.70;99.90;;;;;;5137584;27;20442;-67
2023/12/30 08:54:33;;;;;;;12.90;3.10;;;9.80;99.90;;;;;;5137505;27;20445;-67
2023/12/30 08:57:02;;;;;;;12.40;3.50;;;9.80;99.90;;;;;;5119276;27;20474;-67
2023/12/30 08:59:31;;;;;;;13.00;3.60;;;9.80;99.90;;;;;;5137696;27;20465;-67
2023/12/30 09:01:57;;;;;;;15.40;3.90;;;9.80;99.90;;;;;;5137691;27;20449;-72
2023/12/30 09:04:24;;;;;;;8.00;3.10;;;9.80;99.90;;;;;;5119364;27;20441;-67
2023/12/30 09:06:52;;;;;;;8.10;2.70;;;9.80;99.90;;;;;;5137572;27;20470;-67
2023/12/30 09:09:19;;;;;;;10.47;3.23;;;9.80;99.90;;;;;;5137057;27;20458;-67
2023/12/30 09:11:46;;;;;;;12.30;3.07;;;9.90;99.90;;;;;;5137648;27;20854;-67
2023/12/30 09:14:13;;;;;;;11.87;3.80;;;9.90;99.90;;;;;;5137348;27;20491;-67
2023/12/30 09:16:41;;;;;;;8.27;3.20;;;10.00;99.90;;;;;;5137393;27;20480;-66
2023/12/30 09:19:08;;;;;;;7.23;2.53;;;10.00;99.90;;;;;;5136787;27;20446;-67
2023/12/30 09:21:35;;;;;;;5.27;3.23;;;10.00;99.90;;;;;;5137072;27;20797;-66
2023/12/30 09:24:02;;;;;;;13.53;3.13;;;10.10;99.90;;;;;;5137940;27;20442;-66
2023/12/30 09:26:29;;;;;;;12.70;2.53;;;10.10;99.90;;;;;;5137660;27;20441;-66
2023/12/30 09:28:56;;;;;;;9.33;2.77;;;10.00;99.90;;;;;;5136483;27;20939;-67
2023/12/30 09:31:24;;;;;;;13.23;3.40;;;10.10;99.90;;;;;;5136516;27;20434;-66
2023/12/30 09:33:52;;;;;;;7.60;3.47;;;10.10;99.90;;;;;;5137319;27;20449;-67
2023/12/30 09:36:19;;;;;;;17.57;3.20;;;10.20;99.90;;;;;;5136302;27;20957;-67
2023/12/30 09:38:46;;;;;;;21.53;4.63;;;10.20;99.90;;;;;;5136660;27;20824;-66
2023/12/30 09:41:14;;;;;;;6.80;2.67;;;10.20;99.90;;;;;;5136296;27;20458;-67
2023/12/30 09:43:42;;;;;;;16.27;2.57;;;10.30;99.90;;;;;;5136292;27;20434;-67
2023/12/30 09:46:09;;;;;;;10.23;2.37;;;10.30;99.90;;;;;;5136658;27;20988;-66
2023/12/30 09:48:36;;;;;;;14.30;3.30;;;10.20;99.90;;;;;;5136776;27;20438;-66
2023/12/30 09:51:05;;;;;;;10.77;2.57;;;10.30;99.90;;;;;;5136423;27;20461;-66
2023/12/30 09:53:32;;;;;;;13.10;3.40;;;10.40;99.90;;;;;;5136792;27;20499;-66
2023/12/30 09:55:59;;;;;;;6.93;2.63;;;10.40;99.90;;;;;;5136117;27;20482;-66
2023/12/30 09:58:26;;;;;;;10.03;3.57;;;10.50;99.90;;;;;;5117859;27;20442;-66
2023/12/30 10:00:52;;;;;;;11.30;2.93;;;10.50;99.90;;;;;;5135784;27;20469;-66
2023/12/30 10:03:21;;;;;;;9.55;2.92;;;10.60;99.90;;;;;;5135735;27;20848;-66
2023/12/30 10:05:49;;;;;;;13.40;2.87;;;10.70;99.90;;;;;;5135942;27;20196;-66
2023/12/30 10:08:17;;;;;;;10.40;2.63;;;10.80;99.90;;;;;;5135971;27;20534;-67
2023/12/30 10:10:46;;;;;;;22.63;3.20;;;10.80;99.90;;;;;;5135561;27;20466;-67
2023/12/30 10:13:14;;;;;;;9.83;2.73;;;10.90;99.90;;;;;;5136104;27;20445;-66
2023/12/30 10:15:41;;;;;;;11.20;2.90;;;10.80;99.90;;;;;;5135576;27;20540;-67
2023/12/30 10:18:09;;;;;;;10.47;2.33;;;10.90;99.90;;;;;;5135532;27;20441;-66
2023/12/30 10:20:40;;;;;;;9.70;2.63;;;10.90;99.90;;;;;;5135246;27;20453;-67
2023/12/30 10:23:07;;;;;;;13.73;3.10;;;10.90;99.90;;;;;;5139108;27;20428;-66
2023/12/30 10:25:35;;;;;;;9.00;2.63;;;10.90;99.90;;;;;;5149198;27;20470;-66
2023/12/30 10:28:02;;;;;;;11.10;2.83;;;11.00;99.90;;;;;;5141869;27;20814;-67
2023/12/30 10:30:30;;;;;;;10.60;3.23;;;11.10;99.90;;;;;;5140073;27;21001;-66
2023/12/30 10:33:06;;;;;;;9.60;2.67;;;11.20;99.90;;;;;;5137639;27;20484;-66
2023/12/30 10:35:33;;;;;;;14.03;3.17;;;11.30;99.90;;;;;;5136937;27;20420;-66
2023/12/30 10:38:01;;;;;;;13.57;3.60;;;11.50;99.90;;;;;;5136549;27;20482;-66
2023/12/30 10:40:28;;;;;;;11.77;2.40;;;11.50;99.90;;;;;;5137809;27;21005;-66
2023/12/30 10:42:57;;;;;;;8.33;2.07;;;11.60;99.90;;;;;;5136451;27;20946;-66
2023/12/30 10:45:23;;;;;;;8.90;1.90;;;11.70;99.90;;;;;;5136119;27;20533;-66
2023/12/30 10:47:51;;;;;;;14.20;3.37;;;11.70;99.90;;;;;;5136416;27;20434;-66
2023/12/30 10:50:20;;;;;;;7.93;2.07;;;11.70;99.90;;;;;;5136258;27;20885;-66
2023/12/30 10:52:51;;;;;;;10.13;2.60;;;11.80;99.90;;;;;;5135737;27;20502;-66
2023/12/30 10:55:18;;;;;;;10.17;2.50;;;11.80;99.90;;;;;;5116354;27;21015;-66
2023/12/30 10:57:49;;;;;;;14.83;3.47;;;11.80;99.90;;;;;;5135704;27;20492;-67
2023/12/30 11:00:20;;;;;;;11.87;2.83;;;11.70;99.90;;;;;;5135737;27;20461;-67
2023/12/30 11:02:47;;;;;;;12.63;2.70;;;11.70;99.90;;;;;;5135424;27;20426;-66
2023/12/30 11:05:19;;;;;;;10.07;2.30;;;11.70;99.90;;;;;;5135199;27;20446;-66
2023/12/30 11:07:46;;;;;;;19.13;3.10;;;11.70;99.90;;;;;;5135241;27;20422;-66
2023/12/30 11:10:17;;;;;;;15.97;3.30;;;11.60;99.90;;;;;;5135513;27;20462;-66
2023/12/30 11:12:43;;;;;;;8.80;2.00;;;11.70;99.90;;;;;;5135009;27;20484;-66
2023/12/30 11:15:24;;;;;;;10.53;3.37;;;11.70;99.90;;;;;;5135074;27;20939;-66
2023/12/30 11:17:51;;;;;;;8.77;2.57;;;11.60;99.90;;;;;;5135511;27;20465;-66
2023/12/30 11:20:24;;;;;;;14.80;3.17;;;11.60;99.90;;;;;;5135351;28;20457;-66
2023/12/30 11:22:52;;;;;;;14.67;3.33;;;11.60;99.90;;;;;;5135131;28;20422;-66
2023/12/30 11:25:19;;;;;;;10.70;3.60;;;11.60;99.90;;;;;;5135804;28;20445;-66
2023/12/30 11:27:49;;;;;;;8.50;2.50;;;11.70;99.90;;;;;;5116912;28;20491;-67
2023/12/30 11:30:26;;;;;;;10.63;2.60;;;11.70;99.90;;;;;;5134922;28;20493;-66
2023/12/30 11:32:54;;;;;;;9.10;2.77;;;11.90;99.90;;;;;;5134956;28;20910;-66
2023/12/30 11:35:21;;;;;;;8.13;2.10;;;12.00;99.90;;;;;;5135108;28;20469;-66
2023/12/30 11:37:51;;;;;;;11.10;3.20;;;12.10;99.90;;;;;;5135419;28;20489;-67
2023/12/30 11:40:20;;;;;;;5.90;1.90;;;12.20;99.90;;;;;;5134985;28;20465;-66
2023/12/30 11:42:47;;;;;;;11.30;3.30;;;12.20;99.90;;;;;;5134883;28;20445;-67
2023/12/30 11:45:14;;;;;;;8.90;1.80;;;12.20;99.90;;;;;;5135343;28;20441;-66
2023/12/30 11:47:45;;;;;;;9.80;2.37;;;12.20;99.90;;;;;;5135624;28;20439;-66
2023/12/30 11:50:13;;;;;;;14.77;2.70;;;12.20;99.90;;;;;;5135503;28;20457;-66
2023/12/30 11:52:45;;;;;;;11.10;2.77;;;12.30;99.90;;;;;;5135582;28;20453;-67
2023/12/30 11:55:13;;;;;;;14.17;2.77;;;12.30;99.90;;;;;;5135116;28;20927;-67
2023/12/30 11:57:40;;;;;;;8.23;2.37;;;12.40;99.90;;;;;;5135525;28;20466;-66
2023/12/30 12:00:09;;;;;;;13.80;2.80;;;12.30;99.90;;;;;;5136018;28;20571;-66
2023/12/30 12:02:36;;;;;;;4.93;2.33;;;12.10;99.90;;;;;;5118125;28;20491;-67
2023/12/30 12:05:06;;;;;;;11.33;2.20;;;12.10;99.90;;;;;;5136055;28;20471;-66
2023/12/30 12:07:33;;;;;;;13.93;2.20;;;12.10;99.90;;;;;;5138658;27;20452;-66
2023/12/30 12:10:00;;;;;;;10.17;3.20;;;12.20;99.90;;;;;;5139646;27;20458;-66
2023/12/30 12:12:35;;;;;;;15.17;4.23;;;12.10;99.90;;;;;;5139083;27;20446;-66
2023/12/30 12:15:03;;;;;;;6.97;2.17;;;12.10;99.90;;;;;;5121990;27;20441;-66
2023/12/30 12:17:30;;;;;;;14.43;2.77;;;12.10;99.90;;;;;;5120601;27;20866;-66
2023/12/30 12:19:58;;;;;;;9.50;2.33;;;12.10;99.80;;;;;;5138888;27;20461;-66
2023/12/30 12:22:26;;;;;;;12.13;2.60;;;12.10;99.90;;;;;;5138669;27;20441;-66
2023/12/30 12:24:53;;;;;;;6.80;2.47;;;12.00;99.50;;;;;;5139871;27;20437;-66
2023/12/30 12:27:21;;;;;;;12.17;2.20;;;12.00;99.40;;;;;;5139999;27;20437;-66
2023/12/30 12:29:50;;;;;;;7.50;2.37;;;12.00;99.20;;;;;;5139923;27;20477;-67
2023/12/30 12:32:20;;;;;;;4.20;1.60;;;12.10;99.50;;;;;;5140102;27;20469;-67
2023/12/30 12:34:47;;;;;;;8.10;1.77;;;12.20;99.00;;;;;;5139711;27;20817;-67
2023/12/30 12:37:14;;;;;;;7.73;2.07;;;12.30;98.80;;;;;;5140470;27;20477;-68
2023/12/30 12:39:46;;;;;;;7.53;2.10;;;12.40;98.30;;;;;;5140369;27;20516;-67
2023/12/30 12:42:14;;;;;;;10.87;2.43;;;12.40;98.10;;;;;;5146146;27;20437;-66
2023/12/30 12:44:40;;;;;;;6.07;1.73;;;12.40;97.90;;;;;;5145867;27;20438;-67
2023/12/30 12:47:08;;;;;;;6.43;1.50;;;12.50;97.80;;;;;;5145023;27;20438;-66
2023/12/30 12:49:35;;;;;;;7.93;1.90;;;12.40;97.40;;;;;;5144030;27;20892;-67